createdAt,value
2023-05-10T00:02:25.742Z,3.82
2023-05-10T00:05:27.629Z,3.78
2023-05-10T00:08:29.179Z,3.75
2023-05-10T00:11:30.715Z,3.71
2023-05-10T00:14:32.289Z,3.67
2023-05-10T00:17:33.936Z,3.64
2023-05-10T00:20:35.669Z,3.60
2023-05-10T00:23:37.406Z,3.56
2023-05-10T00:26:39.037Z,3.51
2023-05-10T00:29:40.644Z,3.45
2023-05-10T00:32:42.333Z,3.40
2023-05-10T00:35:43.853Z,3.35
2023-05-10T00:38:45.502Z,3.31
2023-05-10T00:41:47.133Z,3.30
2023-05-10T00:44:48.793Z,3.24
2023-05-10T00:47:50.255Z,2.98
2023-05-10T00:50:51.954Z,2.81
2023-05-10T00:53:53.729Z,2.81
2023-05-10T00:56:55.236Z,2.81
2023-05-10T00:59:56.858Z,2.80
2023-05-10T01:02:59.195Z,2.76
2023-05-10T01:06:01.170Z,2.74
2023-05-10T01:09:02.763Z,2.72
2023-05-10T01:12:06.081Z,2.71
2023-05-10T01:15:09.349Z,2.69
2023-05-10T01:18:10.963Z,2.66
2023-05-10T01:21:39.686Z,2.63
2023-05-10T01:24:56.418Z,2.57
2023-05-10T01:28:19.260Z,2.51
2023-05-10T01:31:32.070Z,2.46
2023-05-10T01:34:43.992Z,2.39
2023-05-10T01:37:58.457Z,2.30
2023-05-10T01:41:13.997Z,2.25
2023-05-10T01:44:30.981Z,2.19
2023-05-10T01:47:46.185Z,2.13
2023-05-10T01:50:48.974Z,2.05
2023-05-10T01:53:55.414Z,1.99
2023-05-10T01:57:01.439Z,1.95
2023-05-10T02:00:04.380Z,1.90
2023-05-10T02:03:07.954Z,1.86
2023-05-10T02:06:11.655Z,1.84
2023-05-10T02:09:14.096Z,1.84
2023-05-10T02:12:16.585Z,1.83
2023-05-10T02:15:21.838Z,1.81
2023-05-10T02:18:25.105Z,1.80
2023-05-10T02:21:27.270Z,1.77
2023-05-10T02:24:29.422Z,1.74
2023-05-10T02:27:31.804Z,1.72
2023-05-10T02:30:34.654Z,1.70
2023-05-10T02:33:36.377Z,1.67
2023-05-10T02:36:40.797Z,1.64
2023-05-10T02:39:42.493Z,1.61
2023-05-10T02:42:44.959Z,1.59
2023-05-10T02:45:48.341Z,1.54
2023-05-10T02:48:49.959Z,1.49
2023-05-10T02:51:56.697Z,1.45
2023-05-10T02:55:01.949Z,1.42
2023-05-10T02:58:04.085Z,1.38
2023-05-10T03:01:05.815Z,1.36
2023-05-10T03:04:07.572Z,1.35
2023-05-10T03:07:09.199Z,1.35
2023-05-10T03:10:11.057Z,1.37
2023-05-10T03:13:41.187Z,1.38
2023-05-10T03:16:48.320Z,1.40
2023-05-10T03:19:55.441Z,1.44
2023-05-10T03:23:03.094Z,1.48
2023-05-10T03:26:05.833Z,1.55
2023-05-10T03:29:07.639Z,1.64
2023-05-10T03:32:09.113Z,1.76
2023-05-10T03:35:12.617Z,1.87
2023-05-10T03:38:14.478Z,2.00
2023-05-10T03:41:16.055Z,2.16
2023-05-10T03:44:17.609Z,2.32
2023-05-10T03:47:22.695Z,2.47
2023-05-10T03:50:24.873Z,2.58
2023-05-10T03:53:26.963Z,2.67
2023-05-10T03:56:28.518Z,2.73
2023-05-10T03:59:30.388Z,2.77
2023-05-10T04:02:32.343Z,2.80
2023-05-10T04:05:34.169Z,2.77
2023-05-10T04:08:35.980Z,2.63
2023-05-10T04:11:37.617Z,2.56
2023-05-10T04:14:39.481Z,2.68
2023-05-10T04:17:40.999Z,2.91
2023-05-10T04:20:42.592Z,3.19
2023-05-10T04:23:44.222Z,3.48
2023-05-10T04:26:45.714Z,3.78
2023-05-10T04:29:47.358Z,4.12
2023-05-10T04:32:49.559Z,4.42
2023-05-10T04:35:51.225Z,4.75
2023-05-10T04:38:53.300Z,5.11
2023-05-10T04:41:55.169Z,5.47
2023-05-10T04:44:56.707Z,5.87
2023-05-10T04:47:58.529Z,6.29
2023-05-10T04:51:00.215Z,6.69
2023-05-10T04:54:06.432Z,7.04
2023-05-10T04:57:09.038Z,7.42
2023-05-10T05:00:11.252Z,7.81
2023-05-10T05:03:13.046Z,8.19
2023-05-10T05:06:14.664Z,8.51
2023-05-10T05:09:16.217Z,8.81
2023-05-10T05:12:17.797Z,9.18
2023-05-10T05:15:19.485Z,9.57
2023-05-10T05:18:21.190Z,9.87
2023-05-10T05:21:23.118Z,10.11
2023-05-10T05:24:24.662Z,10.36
2023-05-10T05:27:29.314Z,10.63
2023-05-10T05:30:30.944Z,11.07
2023-05-10T05:33:32.735Z,11.63
2023-05-10T05:36:37.715Z,12.15
2023-05-10T05:39:39.478Z,12.63
2023-05-10T05:42:41.057Z,13.03
2023-05-10T05:45:42.715Z,13.40
2023-05-10T05:48:44.689Z,13.77
2023-05-10T05:51:46.275Z,14.20
2023-05-10T05:54:47.928Z,14.57
2023-05-10T05:57:49.571Z,14.98
2023-05-10T06:00:51.615Z,15.18
2023-05-10T06:03:53.610Z,15.19
2023-05-10T06:06:55.495Z,15.54
2023-05-10T06:09:57.376Z,15.66
2023-05-10T06:12:59.047Z,15.31
2023-05-10T06:16:00.792Z,15.17
2023-05-10T06:19:03.284Z,14.88
2023-05-10T06:22:04.922Z,14.91
2023-05-10T06:25:07.062Z,15.01
2023-05-10T06:28:09.384Z,15.08
2023-05-10T06:31:11.022Z,15.10
2023-05-10T06:34:12.865Z,15.13
2023-05-10T06:37:14.541Z,15.19
2023-05-10T06:40:16.225Z,15.25
2023-05-10T06:43:18.020Z,15.30
2023-05-10T06:46:19.580Z,15.32
2023-05-10T06:49:25.470Z,15.42
2023-05-10T06:52:27.138Z,15.54
2023-05-10T06:55:29.240Z,15.62
2023-05-10T06:58:31.041Z,15.57
2023-05-10T07:01:32.774Z,15.68
2023-05-10T07:04:34.909Z,15.92
2023-05-10T07:07:36.764Z,16.18
2023-05-10T07:10:38.681Z,16.42
2023-05-10T07:13:40.335Z,16.29
2023-05-10T07:16:42.176Z,16.25
2023-05-10T07:19:43.918Z,16.40
2023-05-10T07:22:45.836Z,16.53
2023-05-10T07:25:48.685Z,16.74
2023-05-10T07:28:50.445Z,16.71
2023-05-10T07:31:52.048Z,16.69
2023-05-10T07:34:53.656Z,16.64
2023-05-10T07:37:55.193Z,16.66
2023-05-10T07:40:56.926Z,16.86
2023-05-10T07:43:58.822Z,16.93
2023-05-10T07:47:00.634Z,17.04
2023-05-10T07:50:02.377Z,16.95
2023-05-10T07:53:04.030Z,17.02
2023-05-10T07:56:26.966Z,17.33
2023-05-10T07:59:28.481Z,17.64
2023-05-10T08:02:30.414Z,17.90
2023-05-10T08:05:33.563Z,17.80
2023-05-10T08:08:37.063Z,17.71
2023-05-10T08:11:38.890Z,17.84
2023-05-10T08:14:40.672Z,18.17
2023-05-10T08:17:43.185Z,18.20
2023-05-10T08:20:44.796Z,18.21
2023-05-10T08:23:46.743Z,18.14
2023-05-10T08:26:48.700Z,18.06
2023-05-10T08:29:50.797Z,17.91
2023-05-10T08:32:52.548Z,17.81
2023-05-10T08:35:54.362Z,18.05
2023-05-10T08:38:56.119Z,18.23
2023-05-10T08:42:01.226Z,18.50
2023-05-10T08:45:03.642Z,18.73
2023-05-10T08:48:07.247Z,18.61
2023-05-10T08:51:10.396Z,18.99
2023-05-10T08:54:12.092Z,19.27
2023-05-10T08:57:13.709Z,19.32
2023-05-10T09:00:15.882Z,19.50
2023-05-10T09:03:17.850Z,19.61
2023-05-10T09:06:19.766Z,19.82
2023-05-10T09:09:22.544Z,19.95
2023-05-10T09:12:24.621Z,19.98
2023-05-10T09:15:26.379Z,20.14
2023-05-10T09:18:28.120Z,20.10
2023-05-10T09:21:30.679Z,19.63
2023-05-10T09:24:32.274Z,18.91
2023-05-10T09:27:34.668Z,18.94
2023-05-10T09:30:36.927Z,18.64
2023-05-10T09:33:45.755Z,18.01
2023-05-10T09:37:01.585Z,18.68
2023-05-10T09:40:06.475Z,19.15
2023-05-10T09:43:08.615Z,19.13
2023-05-10T09:46:10.713Z,19.66
2023-05-10T09:49:15.733Z,20.18
2023-05-10T09:52:17.477Z,20.45
2023-05-10T09:55:23.950Z,20.63
2023-05-10T09:58:25.669Z,20.82
2023-05-10T10:01:27.604Z,20.78
2023-05-10T10:04:29.376Z,20.91
2023-05-10T10:07:31.433Z,20.81
2023-05-10T10:10:34.204Z,21.15
2023-05-10T10:13:35.815Z,21.56
2023-05-10T10:16:39.942Z,21.65
2023-05-10T10:19:49.510Z,20.89
2023-05-10T10:22:51.043Z,21.14
2023-05-10T10:25:54.486Z,21.22
2023-05-10T10:28:58.578Z,21.48
2023-05-10T10:32:38.735Z,21.97
2023-05-10T10:35:40.245Z,22.19
2023-05-10T10:38:47.657Z,22.58
2023-05-10T10:41:53.199Z,22.63
2023-05-10T10:45:13.434Z,22.51
2023-05-10T10:48:22.896Z,21.66
2023-05-10T10:51:24.475Z,20.77
2023-05-10T10:54:29.409Z,20.72
2023-05-10T10:57:44.441Z,20.51
2023-05-10T11:00:46.163Z,20.62
2023-05-10T11:03:59.888Z,21.34
2023-05-10T11:07:17.694Z,21.41
2023-05-10T11:10:23.261Z,21.48
2023-05-10T11:13:46.675Z,21.70
2023-05-10T11:16:49.578Z,22.12
2023-05-10T11:20:08.167Z,22.34
2023-05-10T11:23:14.921Z,22.72
2023-05-10T11:26:16.640Z,22.72
2023-05-10T11:29:18.357Z,22.23
2023-05-10T11:32:20.686Z,20.71
2023-05-10T11:35:22.338Z,20.40
2023-05-10T11:38:23.986Z,20.89
2023-05-10T11:41:26.386Z,21.69
2023-05-10T11:44:32.429Z,22.01
2023-05-10T11:47:34.229Z,21.91
2023-05-10T11:50:35.931Z,21.68
2023-05-10T11:53:38.030Z,21.52
2023-05-10T11:56:40.741Z,21.48
2023-05-10T11:59:43.301Z,21.72
2023-05-10T12:02:45.136Z,20.86
2023-05-10T12:05:47.086Z,21.17
2023-05-10T12:08:49.587Z,21.45
2023-05-10T12:11:57.165Z,21.76
2023-05-10T12:14:58.694Z,22.17
2023-05-10T12:18:23.928Z,22.08
2023-05-10T12:21:25.938Z,22.00
2023-05-10T12:24:27.502Z,22.01
2023-05-10T12:27:48.654Z,21.81
2023-05-10T12:30:54.608Z,21.55
2023-05-10T12:33:56.134Z,21.63
2023-05-10T12:36:57.771Z,21.94
2023-05-10T12:39:59.281Z,22.13
2023-05-10T12:43:00.939Z,22.16
2023-05-10T12:46:12.806Z,22.15
2023-05-10T12:49:14.324Z,22.39
2023-05-10T12:52:15.842Z,22.56
2023-05-10T12:55:17.359Z,23.11
2023-05-10T12:58:34.357Z,23.35
2023-05-10T13:01:37.095Z,23.03
2023-05-10T13:04:38.807Z,22.97
2023-05-10T13:07:40.548Z,23.40
2023-05-10T13:10:42.231Z,24.14
2023-05-10T13:13:43.776Z,23.95
2023-05-10T13:16:45.460Z,23.39
2023-05-10T13:19:47.277Z,23.72
2023-05-10T13:22:50.588Z,23.75
2023-05-10T13:25:53.609Z,23.65
2023-05-10T13:28:55.298Z,23.50
2023-05-10T13:31:56.984Z,23.53
2023-05-10T13:34:58.570Z,23.94
2023-05-10T13:38:00.241Z,24.22
2023-05-10T13:41:01.711Z,23.63
2023-05-10T13:44:03.452Z,23.41
2023-05-10T13:47:05.324Z,23.49
2023-05-10T13:50:07.494Z,24.20
2023-05-10T13:53:09.111Z,24.44
2023-05-10T13:56:10.609Z,24.97
2023-05-10T13:59:12.239Z,24.45
2023-05-10T14:02:14.039Z,24.44
2023-05-10T14:05:17.056Z,24.61
2023-05-10T14:08:19.712Z,24.72
2023-05-10T14:11:23.241Z,25.09
2023-05-10T14:14:26.116Z,25.63
2023-05-10T14:17:27.803Z,25.74
2023-05-10T14:20:29.411Z,25.61
2023-05-10T14:23:31.391Z,26.34
2023-05-10T14:26:32.869Z,27.70
2023-05-10T14:29:34.463Z,27.65
2023-05-10T14:32:36.040Z,24.86
2023-05-10T14:35:37.678Z,24.41
2023-05-10T14:38:39.142Z,24.52
2023-05-10T14:41:40.769Z,24.51
2023-05-10T14:44:42.290Z,24.67
2023-05-10T14:47:43.842Z,24.56
2023-05-10T14:50:46.270Z,24.26
2023-05-10T14:53:48.494Z,23.80
2023-05-10T14:56:50.007Z,23.65
2023-05-10T14:59:51.690Z,23.39
2023-05-10T15:02:53.852Z,23.07
2023-05-10T15:05:55.894Z,22.84
2023-05-10T15:08:57.490Z,22.64
2023-05-10T15:11:59.140Z,22.19
2023-05-10T15:15:00.736Z,21.74
2023-05-10T15:18:02.345Z,21.50
2023-05-10T15:21:05.024Z,21.26
2023-05-10T15:24:08.092Z,21.08
2023-05-10T15:27:10.655Z,20.92
2023-05-10T15:30:13.880Z,20.73
2023-05-10T15:33:15.507Z,20.65
2023-05-10T15:36:17.067Z,20.40
2023-05-10T15:39:18.631Z,20.51
2023-05-10T15:42:20.197Z,20.54
2023-05-10T15:45:21.867Z,20.12
2023-05-10T15:48:23.626Z,19.82
2023-05-10T15:51:25.893Z,19.68
2023-05-10T15:54:27.609Z,19.78
2023-05-10T15:57:29.271Z,19.75
2023-05-10T16:00:30.830Z,19.42
2023-05-10T16:03:35.879Z,19.25
2023-05-10T16:06:38.975Z,19.20
2023-05-10T16:09:40.540Z,19.02
2023-05-10T16:12:42.230Z,19.05
2023-05-10T16:15:44.063Z,19.06
2023-05-10T16:18:45.803Z,19.08
2023-05-10T16:21:47.751Z,18.91
2023-05-10T16:24:49.687Z,18.84
2023-05-10T16:27:51.402Z,18.70
2023-05-10T16:30:53.054Z,18.56
2023-05-10T16:33:54.667Z,18.42
2023-05-10T16:36:56.183Z,18.20
2023-05-10T16:39:57.774Z,18.08
2023-05-10T16:42:59.332Z,18.00
2023-05-10T16:46:00.932Z,17.92
2023-05-10T16:49:02.720Z,17.80
2023-05-10T16:52:04.321Z,17.73
2023-05-10T16:55:06.286Z,17.69
2023-05-10T16:58:07.859Z,17.73
2023-05-10T17:01:09.452Z,18.02
2023-05-10T17:04:11.096Z,18.96
2023-05-10T17:07:12.968Z,20.02
2023-05-10T17:10:14.876Z,20.77
2023-05-10T17:13:16.986Z,21.32
2023-05-10T17:16:18.617Z,21.29
2023-05-10T17:19:20.272Z,20.02
2023-05-10T17:22:21.821Z,18.98
2023-05-10T17:25:23.564Z,18.12
2023-05-10T17:28:25.233Z,17.62
2023-05-10T17:31:27.146Z,17.12
2023-05-10T17:34:28.759Z,16.61
2023-05-10T17:37:30.638Z,16.16
2023-05-10T17:40:32.238Z,15.86
2023-05-10T17:43:33.972Z,15.62
2023-05-10T17:46:35.604Z,15.34
2023-05-10T17:49:37.252Z,15.07
2023-05-10T17:52:39.105Z,14.86
2023-05-10T17:55:41.449Z,14.71
2023-05-10T17:58:43.016Z,14.51
2023-05-10T18:01:44.795Z,14.35
2023-05-10T18:04:46.537Z,14.19
2023-05-10T18:07:48.271Z,14.03
2023-05-10T18:10:49.952Z,13.89
2023-05-10T18:13:51.486Z,13.74
2023-05-10T18:16:53.133Z,13.60
2023-05-10T18:19:54.688Z,13.47
2023-05-10T18:22:56.500Z,13.33
2023-05-10T18:25:58.097Z,13.20
2023-05-10T18:29:01.381Z,13.11
2023-05-10T18:32:03.452Z,13.01
2023-05-10T18:35:06.360Z,12.90
2023-05-10T18:38:08.091Z,12.78
2023-05-10T18:41:09.762Z,12.68
2023-05-10T18:44:11.725Z,12.57
2023-05-10T18:47:13.318Z,12.51
2023-05-10T18:50:14.951Z,12.40
2023-05-10T18:53:16.585Z,12.28
2023-05-10T18:56:18.215Z,12.17
2023-05-10T18:59:19.805Z,12.08
2023-05-10T19:02:21.367Z,11.98
2023-05-10T19:05:22.992Z,11.89
2023-05-10T19:08:24.587Z,11.78
2023-05-10T19:11:26.178Z,11.67
2023-05-10T19:14:29.026Z,11.55
2023-05-10T19:17:31.691Z,11.44
2023-05-10T19:20:33.435Z,11.35
2023-05-10T19:23:35.406Z,11.27
2023-05-10T19:26:37.131Z,11.19
2023-05-10T19:29:38.759Z,11.12
2023-05-10T19:32:40.420Z,11.04
2023-05-10T19:35:42.153Z,10.95
2023-05-10T19:38:43.770Z,10.87
2023-05-10T19:41:45.388Z,10.79
2023-05-10T19:44:47.080Z,10.69
2023-05-10T19:47:48.791Z,10.62
2023-05-10T19:50:51.666Z,10.53
2023-05-10T19:53:53.316Z,10.44
2023-05-10T19:56:54.950Z,10.37
2023-05-10T19:59:56.491Z,10.30
2023-05-10T20:02:58.237Z,10.23
2023-05-10T20:06:00.972Z,10.17
2023-05-10T20:09:02.674Z,10.12
2023-05-10T20:12:04.359Z,10.07
2023-05-10T20:15:07.343Z,10.03
2023-05-10T20:18:09.180Z,9.99
2023-05-10T20:21:10.907Z,9.94
2023-05-10T20:24:12.510Z,9.87
2023-05-10T20:27:19.483Z,9.82
2023-05-10T20:30:21.188Z,9.74
2023-05-10T20:33:22.919Z,9.67
2023-05-10T20:36:24.602Z,9.60
2023-05-10T20:39:26.176Z,9.54
2023-05-10T20:42:27.753Z,9.46
2023-05-10T20:45:29.362Z,9.39
2023-05-10T20:48:32.313Z,9.31
2023-05-10T20:51:33.948Z,9.23
2023-05-10T20:54:35.538Z,9.15
2023-05-10T20:57:37.166Z,9.05
2023-05-10T21:00:38.836Z,8.94
2023-05-10T21:03:40.488Z,8.82
2023-05-10T21:06:43.354Z,8.71
2023-05-10T21:09:44.907Z,8.63
2023-05-10T21:12:46.370Z,8.58
2023-05-10T21:15:48.099Z,8.51
2023-05-10T21:18:49.751Z,8.46
2023-05-10T21:21:51.538Z,8.41
2023-05-10T21:24:53.153Z,8.34
2023-05-10T21:27:54.738Z,8.28
2023-05-10T21:30:56.177Z,8.20
2023-05-10T21:33:58.102Z,8.11
2023-05-10T21:36:59.709Z,8.03
2023-05-10T21:40:02.008Z,7.94
2023-05-10T21:43:03.642Z,7.86
2023-05-10T21:46:05.248Z,7.79
2023-05-10T21:49:06.997Z,7.70
2023-05-10T21:52:08.452Z,7.61
2023-05-10T21:55:10.065Z,7.50
2023-05-10T21:58:11.672Z,7.40
2023-05-10T22:01:13.355Z,7.31
2023-05-10T22:04:14.954Z,7.28
2023-05-10T22:07:16.446Z,7.28
2023-05-10T22:10:18.325Z,7.27
2023-05-10T22:13:20.185Z,7.26
2023-05-10T22:16:22.235Z,7.22
2023-05-10T22:19:23.911Z,7.11
2023-05-10T22:22:25.450Z,7.02
2023-05-10T22:25:27.146Z,6.97
2023-05-10T22:28:29.351Z,6.95
2023-05-10T22:31:31.055Z,6.93
2023-05-10T22:34:33.752Z,6.91
2023-05-10T22:37:35.390Z,6.89
2023-05-10T22:40:36.934Z,6.87
2023-05-10T22:43:38.579Z,6.84
2023-05-10T22:46:40.145Z,6.80
2023-05-10T22:49:41.644Z,6.78
2023-05-10T22:52:43.249Z,6.77
2023-05-10T22:55:44.930Z,6.80
2023-05-10T22:58:49.620Z,6.85
2023-05-10T23:01:51.218Z,6.91
2023-05-10T23:04:52.884Z,6.95
2023-05-10T23:07:54.368Z,6.97
2023-05-10T23:10:55.997Z,6.98
2023-05-10T23:13:57.491Z,6.99
2023-05-10T23:16:59.092Z,6.98
2023-05-10T23:20:00.601Z,6.96
2023-05-10T23:23:02.326Z,6.93
2023-05-10T23:26:04.109Z,6.89
2023-05-10T23:29:05.767Z,6.83
2023-05-10T23:32:07.400Z,6.75
2023-05-10T23:35:08.974Z,6.68
2023-05-10T23:38:10.625Z,6.63
2023-05-10T23:41:12.108Z,6.60
2023-05-10T23:44:13.677Z,6.54
2023-05-10T23:47:15.189Z,6.49
2023-05-10T23:50:17.085Z,6.44
2023-05-10T23:53:19.004Z,6.41
2023-05-10T23:56:20.618Z,6.37
2023-05-10T23:59:22.130Z,6.35
